createdAt,value
2023-04-28T00:00:20.667Z,14.27
2023-04-28T00:02:48.985Z,13.97
2023-04-28T00:05:16.263Z,15.33
2023-04-28T00:07:43.333Z,14.93
2023-04-28T00:10:11.606Z,14.77
2023-04-28T00:12:38.859Z,14.70
2023-04-28T00:15:06.147Z,14.27
2023-04-28T00:17:34.411Z,15.20
2023-04-28T00:20:01.433Z,15.77
2023-04-28T00:22:28.352Z,14.43
2023-04-28T00:24:55.314Z,15.67
2023-04-28T00:27:22.261Z,14.67
2023-04-28T00:29:49.211Z,15.63
2023-04-28T00:32:16.195Z,16.40
2023-04-28T00:34:43.473Z,14.77
2023-04-28T00:37:10.614Z,15.90
2023-04-28T00:39:37.651Z,14.33
2023-04-28T00:42:04.885Z,14.70
2023-04-28T00:44:31.818Z,15.57
2023-04-28T00:46:59.611Z,15.83
2023-04-28T00:49:27.129Z,15.77
2023-04-28T00:51:54.037Z,14.73
2023-04-28T00:54:21.246Z,15.63
2023-04-28T00:56:49.531Z,15.33
2023-04-28T00:59:17.511Z,14.90
2023-04-28T01:01:44.666Z,15.20
2023-04-28T01:04:12.107Z,15.50
2023-04-28T01:06:39.807Z,15.23
2023-04-28T01:09:07.733Z,15.60
2023-04-28T01:11:34.676Z,14.57
2023-04-28T01:14:02.608Z,15.33
2023-04-28T01:16:30.329Z,15.80
2023-04-28T01:18:57.284Z,15.73
2023-04-28T01:21:34.676Z,15.60
2023-04-28T01:24:02.141Z,16.50
2023-04-28T01:26:29.375Z,16.13
2023-04-28T01:28:56.395Z,14.80
2023-04-28T01:31:23.346Z,14.63
2023-04-28T01:33:50.645Z,16.27
2023-04-28T01:36:17.639Z,16.47
2023-04-28T01:38:45.593Z,17.00
2023-04-28T01:41:12.482Z,15.77
2023-04-28T01:43:39.447Z,16.07
2023-04-28T01:46:06.834Z,15.57
2023-04-28T01:48:33.802Z,15.43
2023-04-28T01:51:00.745Z,15.03
2023-04-28T01:53:27.701Z,15.30
2023-04-28T01:55:55.396Z,15.27
2023-04-28T01:58:22.350Z,16.57
2023-04-28T02:00:49.247Z,16.50
2023-04-28T02:03:16.742Z,16.80
2023-04-28T02:05:44.852Z,15.83
2023-04-28T02:08:12.805Z,16.73
2023-04-28T02:10:39.758Z,17.23
2023-04-28T02:13:06.715Z,16.97
2023-04-28T02:15:35.463Z,17.37
2023-04-28T02:18:02.461Z,16.63
2023-04-28T02:20:30.755Z,18.57
2023-04-28T02:22:58.760Z,16.87
2023-04-28T02:25:25.921Z,16.80
2023-04-28T02:27:52.921Z,17.47
2023-04-28T02:30:19.937Z,16.90
2023-04-28T02:32:48.066Z,18.30
2023-04-28T02:35:15.195Z,17.77
2023-04-28T02:37:42.279Z,18.17
2023-04-28T02:40:09.594Z,18.47
2023-04-28T02:42:36.526Z,19.23
2023-04-28T02:45:03.599Z,18.67
2023-04-28T02:47:30.543Z,18.23
2023-04-28T02:49:57.888Z,18.73
2023-04-28T02:52:24.790Z,18.90
2023-04-28T02:54:54.669Z,18.00
2023-04-28T02:57:21.636Z,19.17
2023-04-28T02:59:48.526Z,18.70
2023-04-28T03:02:16.008Z,18.33
2023-04-28T03:04:43.101Z,19.97
2023-04-28T03:07:10.063Z,18.67
2023-04-28T03:09:37.976Z,20.03
2023-04-28T03:12:05.051Z,19.33
2023-04-28T03:14:31.992Z,18.43
2023-04-28T03:16:58.964Z,19.17
2023-04-28T03:19:26.741Z,19.43
2023-04-28T03:21:53.998Z,20.10
2023-04-28T03:24:21.104Z,20.10
2023-04-28T03:26:48.113Z,20.80
2023-04-28T03:29:15.013Z,20.83
2023-04-28T03:31:41.948Z,21.73
2023-04-28T03:34:09.007Z,21.80
2023-04-28T03:36:36.251Z,21.60
2023-04-28T03:39:03.228Z,22.23
2023-04-28T03:41:30.211Z,21.63
2023-04-28T03:43:57.267Z,23.90
2023-04-28T03:46:24.337Z,23.70
2023-04-28T03:48:51.363Z,23.80
2023-04-28T03:51:18.312Z,25.20
2023-04-28T03:53:45.224Z,25.87
2023-04-28T03:56:12.318Z,26.10
2023-04-28T03:58:39.264Z,26.97
2023-04-28T04:01:06.243Z,27.57
2023-04-28T04:03:33.429Z,26.70
2023-04-28T04:06:00.593Z,27.43
2023-04-28T04:08:27.696Z,27.53
2023-04-28T04:10:56.040Z,28.20
2023-04-28T04:13:23.211Z,28.37
2023-04-28T04:15:51.004Z,27.83
2023-04-28T04:18:18.300Z,27.37
2023-04-28T04:20:45.537Z,28.60
2023-04-28T04:23:12.507Z,28.53
2023-04-28T04:25:39.555Z,29.00
2023-04-28T04:28:06.545Z,29.53
2023-04-28T04:30:33.705Z,28.30
2023-04-28T04:33:00.952Z,29.00
2023-04-28T04:35:29.979Z,29.70
2023-04-28T04:37:56.926Z,29.30
2023-04-28T04:40:24.001Z,29.37
2023-04-28T04:42:51.942Z,28.57
2023-04-28T04:45:18.990Z,29.27
2023-04-28T04:47:46.176Z,29.70
2023-04-28T04:50:13.229Z,31.50
2023-04-28T04:52:40.468Z,28.90
2023-04-28T04:55:08.098Z,31.00
2023-04-28T04:57:35.071Z,29.03
2023-04-28T05:00:02.135Z,29.93
2023-04-28T05:02:29.180Z,31.40
2023-04-28T05:05:08.256Z,30.93
2023-04-28T05:07:43.580Z,29.77
2023-04-28T05:10:11.686Z,31.97
2023-04-28T05:12:39.155Z,30.63
2023-04-28T05:15:08.162Z,30.30
2023-04-28T05:17:35.283Z,32.53
2023-04-28T05:20:02.544Z,32.70
2023-04-28T05:22:31.223Z,30.50
2023-04-28T05:24:58.187Z,33.17
2023-04-28T05:27:25.131Z,30.03
2023-04-28T05:29:52.137Z,32.20
2023-04-28T05:32:19.208Z,28.47
2023-04-28T05:34:46.182Z,29.27
2023-04-28T05:37:13.135Z,28.00
2023-04-28T05:39:40.027Z,25.47
2023-04-28T05:42:07.007Z,25.70
2023-04-28T05:44:33.986Z,24.50
2023-04-28T05:47:01.041Z,23.63
2023-04-28T05:49:28.016Z,23.20
2023-04-28T05:51:54.950Z,22.70
2023-04-28T05:54:21.887Z,23.03
2023-04-28T05:56:50.240Z,22.60
2023-04-28T05:59:17.533Z,21.13
2023-04-28T06:01:44.587Z,19.70
2023-04-28T06:04:11.734Z,19.40
2023-04-28T06:06:39.127Z,17.63
2023-04-28T06:09:07.208Z,17.50
2023-04-28T06:11:34.175Z,16.03
2023-04-28T06:14:01.173Z,17.30
2023-04-28T06:16:29.090Z,17.97
2023-04-28T06:18:56.318Z,16.90
2023-04-28T06:21:25.028Z,15.23
2023-04-28T06:23:51.995Z,13.57
2023-04-28T06:26:18.917Z,11.13
2023-04-28T06:28:46.059Z,10.03
2023-04-28T06:31:13.028Z,7.80
2023-04-28T06:33:39.998Z,6.03
2023-04-28T06:36:07.591Z,6.57
2023-04-28T06:38:34.630Z,6.17
2023-04-28T06:41:01.574Z,6.40
2023-04-28T06:43:29.554Z,5.97
2023-04-28T06:45:56.476Z,4.97
2023-04-28T06:48:23.457Z,5.13
2023-04-28T06:50:50.542Z,3.70
2023-04-28T06:53:17.631Z,4.97
2023-04-28T06:55:44.557Z,4.90
2023-04-28T06:58:11.846Z,4.57
2023-04-28T07:00:38.865Z,3.70
2023-04-28T07:03:06.146Z,3.13
2023-04-28T07:05:34.287Z,2.77
2023-04-28T07:08:01.270Z,2.63
2023-04-28T07:10:28.237Z,1.53
2023-04-28T07:12:55.251Z,2.10
2023-04-28T07:15:24.014Z,1.23
2023-04-28T07:17:51.089Z,1.20
2023-04-28T07:20:18.394Z,0.90
2023-04-28T07:22:45.366Z,1.10
2023-04-28T07:25:12.274Z,1.10
2023-04-28T07:27:39.281Z,1.43
2023-04-28T07:30:25.203Z,2.00
2023-04-28T07:32:53.934Z,1.60
2023-04-28T07:35:20.920Z,1.70
2023-04-28T07:37:48.401Z,1.70
2023-04-28T07:40:15.910Z,1.87
2023-04-28T07:42:42.930Z,1.27
2023-04-28T07:45:11.907Z,1.53
2023-04-28T07:47:39.397Z,0.70
2023-04-28T07:50:07.528Z,1.13
2023-04-28T07:52:34.592Z,0.77
2023-04-28T07:55:03.084Z,0.70
2023-04-28T07:57:30.827Z,0.77
2023-04-28T07:59:57.818Z,1.07
2023-04-28T08:02:26.297Z,0.80
2023-04-28T08:04:53.768Z,1.60
2023-04-28T08:07:20.865Z,1.07
2023-04-28T08:09:48.439Z,0.90
2023-04-28T08:12:15.779Z,0.93
2023-04-28T08:14:42.802Z,0.90
2023-04-28T08:17:10.168Z,1.50
2023-04-28T08:19:37.202Z,1.30
2023-04-28T08:22:07.097Z,2.30
2023-04-28T08:24:34.659Z,3.60
2023-04-28T08:27:06.172Z,3.43
2023-04-28T08:29:33.539Z,3.20
2023-04-28T08:32:04.862Z,3.00
2023-04-28T08:34:31.802Z,2.77
2023-04-28T08:36:59.003Z,2.47
2023-04-28T08:39:27.013Z,2.47
2023-04-28T08:41:54.090Z,2.30
2023-04-28T08:44:21.064Z,2.40
2023-04-28T08:46:50.192Z,1.40
2023-04-28T08:49:19.003Z,1.03
2023-04-28T08:51:57.586Z,1.40
2023-04-28T08:54:30.757Z,1.30
2023-04-28T08:56:58.778Z,1.10
2023-04-28T08:59:26.512Z,1.10
2023-04-28T09:01:53.682Z,1.13
2023-04-28T09:04:21.474Z,1.13
2023-04-28T09:06:48.969Z,1.67
2023-04-28T09:09:22.061Z,1.40
2023-04-28T09:12:15.403Z,1.23
2023-04-28T09:14:42.391Z,1.20
2023-04-28T09:17:13.693Z,1.10
2023-04-28T09:19:43.451Z,1.47
2023-04-28T09:22:21.893Z,1.47
2023-04-28T09:24:55.314Z,1.33
2023-04-28T09:27:28.357Z,1.20
2023-04-28T09:29:55.520Z,0.90
2023-04-28T09:32:23.962Z,0.87
2023-04-28T09:34:54.003Z,1.20
2023-04-28T09:37:23.367Z,0.93
2023-04-28T09:39:52.186Z,1.00
2023-04-28T09:42:38.107Z,1.30
2023-04-28T09:45:06.700Z,1.13
2023-04-28T09:47:36.392Z,1.57
2023-04-28T09:50:06.689Z,1.07
2023-04-28T09:52:37.415Z,1.30
2023-04-28T09:55:07.097Z,1.53
2023-04-28T09:57:36.106Z,1.33
2023-04-28T10:00:13.653Z,1.30
2023-04-28T10:02:43.894Z,1.40
2023-04-28T10:05:11.777Z,1.30
2023-04-28T10:07:39.668Z,1.30
2023-04-28T10:10:08.266Z,1.80
2023-04-28T10:12:38.421Z,1.40
2023-04-28T10:15:07.694Z,1.40
2023-04-28T10:17:36.931Z,1.60
2023-04-28T10:20:05.348Z,1.60
2023-04-28T10:22:35.416Z,1.73
2023-04-28T10:25:02.293Z,1.80
2023-04-28T10:27:33.902Z,2.23
2023-04-28T10:30:26.355Z,2.10
2023-04-28T10:33:15.189Z,1.93
2023-04-28T10:35:44.737Z,2.10
2023-04-28T10:38:14.204Z,2.20
2023-04-28T10:40:42.334Z,1.93
2023-04-28T10:43:11.524Z,2.43
2023-04-28T10:45:57.535Z,2.33
2023-04-28T10:48:34.325Z,2.67
2023-04-28T10:51:04.900Z,2.20
2023-04-28T10:53:47.511Z,2.20
2023-04-28T10:56:23.619Z,2.90
2023-04-28T10:58:51.946Z,2.50
2023-04-28T11:01:22.208Z,2.60
2023-04-28T11:03:52.278Z,2.60
2023-04-28T11:06:29.026Z,2.63
2023-04-28T11:08:58.173Z,2.43
2023-04-28T11:11:36.622Z,2.10
2023-04-28T11:14:20.265Z,2.00
2023-04-28T11:17:04.261Z,1.57
2023-04-28T11:19:34.760Z,1.67
2023-04-28T11:22:04.120Z,1.43
2023-04-28T11:24:31.758Z,1.83
2023-04-28T11:26:59.702Z,1.50
2023-04-28T11:29:33.593Z,1.37
2023-04-28T11:32:01.121Z,1.50
2023-04-28T11:34:28.391Z,1.10
2023-04-28T11:36:55.684Z,1.40
2023-04-28T11:39:31.637Z,2.30
2023-04-28T11:42:00.315Z,2.90
2023-04-28T11:44:29.405Z,2.60
2023-04-28T11:47:02.103Z,2.60
2023-04-28T11:49:46.168Z,2.50
2023-04-28T11:52:14.196Z,2.53
2023-04-28T11:54:43.938Z,2.30
2023-04-28T11:57:21.906Z,2.17
2023-04-28T11:59:49.919Z,2.90
2023-04-28T12:02:28.119Z,2.53
2023-04-28T12:04:55.376Z,2.70
2023-04-28T12:07:22.489Z,2.47
2023-04-28T12:10:12.798Z,2.03
2023-04-28T12:12:49.786Z,2.00
2023-04-28T12:15:20.411Z,2.60
2023-04-28T12:17:48.631Z,2.23
2023-04-28T12:20:39.333Z,2.80
2023-04-28T12:23:07.930Z,2.47
2023-04-28T12:25:45.702Z,2.57
2023-04-28T12:28:12.676Z,2.07
2023-04-28T12:30:42.601Z,3.13
2023-04-28T12:33:26.621Z,2.53
2023-04-28T12:35:58.019Z,2.73
2023-04-28T12:38:25.288Z,2.20
2023-04-28T12:40:53.539Z,2.40
2023-04-28T12:43:23.278Z,2.63
2023-04-28T12:45:53.734Z,2.37
2023-04-28T12:48:21.565Z,2.80
2023-04-28T12:50:48.498Z,2.50
2023-04-28T12:53:15.490Z,2.90
2023-04-28T12:55:42.671Z,3.17
2023-04-28T12:58:09.860Z,2.60
2023-04-28T13:00:37.113Z,3.47
2023-04-28T13:03:04.267Z,2.80
2023-04-28T13:05:32.269Z,2.23
2023-04-28T13:07:59.752Z,2.00
2023-04-28T13:10:26.877Z,1.80
2023-04-28T13:12:53.829Z,1.77
2023-04-28T13:15:20.976Z,1.80
2023-04-28T13:17:49.271Z,1.30
2023-04-28T13:20:16.315Z,1.70
2023-04-28T13:22:43.398Z,1.60
2023-04-28T13:25:10.729Z,1.63
2023-04-28T13:27:38.068Z,1.40
2023-04-28T13:30:06.530Z,1.30
2023-04-28T13:32:33.747Z,1.70
2023-04-28T13:35:00.792Z,1.77
2023-04-28T13:37:28.962Z,3.47
2023-04-28T13:39:56.028Z,2.27
2023-04-28T13:42:22.923Z,1.67
2023-04-28T13:44:50.027Z,1.33
2023-04-28T13:47:16.962Z,1.60
2023-04-28T13:49:43.855Z,1.97
2023-04-28T13:52:10.878Z,1.37
2023-04-28T13:54:37.881Z,1.30
2023-04-28T13:57:04.798Z,1.97
2023-04-28T13:59:31.861Z,2.30
2023-04-28T14:01:58.837Z,1.87
2023-04-28T14:04:26.279Z,3.27
2023-04-28T14:06:53.690Z,3.20
2023-04-28T14:09:20.791Z,2.67
2023-04-28T14:11:48.118Z,2.63
2023-04-28T14:14:15.085Z,2.40
2023-04-28T14:16:42.099Z,2.50
2023-04-28T14:19:09.113Z,2.07
2023-04-28T14:21:36.968Z,1.40
2023-04-28T14:24:04.126Z,1.17
2023-04-28T14:26:31.322Z,1.53
2023-04-28T14:28:58.906Z,2.40
2023-04-28T14:31:25.955Z,2.23
2023-04-28T14:33:52.877Z,2.03
2023-04-28T14:36:20.076Z,2.30
2023-04-28T14:38:47.075Z,2.27
2023-04-28T14:41:14.042Z,1.80
2023-04-28T14:43:41.513Z,1.93
2023-04-28T14:46:08.858Z,2.13
2023-04-28T14:48:36.946Z,2.13
2023-04-28T14:51:03.997Z,1.60
2023-04-28T14:53:32.021Z,2.27
2023-04-28T14:56:11.334Z,2.23
2023-04-28T14:58:45.331Z,1.77
2023-04-28T15:01:13.547Z,1.80
2023-04-28T15:03:40.872Z,2.37
2023-04-28T15:06:08.254Z,2.93
2023-04-28T15:08:35.204Z,2.67
2023-04-28T15:11:02.239Z,3.00
2023-04-28T15:13:29.282Z,3.30
2023-04-28T15:15:56.356Z,3.73
2023-04-28T15:18:23.453Z,2.87
2023-04-28T15:20:51.773Z,3.37
2023-04-28T15:23:19.918Z,2.93
2023-04-28T15:25:47.294Z,3.00
2023-04-28T15:28:14.269Z,2.43
2023-04-28T15:30:41.200Z,3.37
2023-04-28T15:33:08.622Z,3.30
2023-04-28T15:35:35.853Z,3.20
2023-04-28T15:38:02.774Z,3.93
2023-04-28T15:40:29.698Z,2.97
2023-04-28T15:42:56.841Z,3.13
2023-04-28T15:45:24.898Z,2.87
2023-04-28T15:47:51.936Z,3.40
2023-04-28T15:50:20.348Z,3.47
2023-04-28T15:52:47.921Z,3.20
2023-04-28T15:55:16.238Z,2.83
2023-04-28T15:57:44.659Z,4.00
2023-04-28T16:00:12.842Z,2.90
2023-04-28T16:02:39.915Z,2.93
2023-04-28T16:05:07.442Z,3.53
2023-04-28T16:07:44.662Z,3.37
2023-04-28T16:10:13.739Z,2.90
2023-04-28T16:12:41.967Z,3.30
2023-04-28T16:15:10.949Z,3.40
2023-04-28T16:17:38.709Z,3.07
2023-04-28T16:20:07.756Z,3.13
2023-04-28T16:22:36.879Z,3.80
2023-04-28T16:25:04.212Z,3.50
2023-04-28T16:27:31.881Z,3.80
2023-04-28T16:29:59.156Z,3.60
2023-04-28T16:32:26.429Z,3.47
2023-04-28T16:34:53.386Z,2.80
2023-04-28T16:37:20.322Z,2.97
2023-04-28T16:39:47.293Z,3.10
2023-04-28T16:42:15.239Z,3.50
2023-04-28T16:44:42.777Z,3.77
2023-04-28T16:47:09.829Z,3.10
2023-04-28T16:49:36.795Z,3.83
2023-04-28T16:52:04.700Z,3.60
2023-04-28T16:54:32.867Z,2.60
2023-04-28T16:57:02.599Z,2.93
2023-04-28T16:59:30.088Z,2.93
2023-04-28T17:02:02.018Z,3.17
2023-04-28T17:04:29.242Z,3.40
2023-04-28T17:06:56.448Z,3.57
2023-04-28T17:09:23.410Z,3.23
2023-04-28T17:11:50.882Z,2.90
2023-04-28T17:14:18.501Z,2.83
2023-04-28T17:16:45.587Z,3.03
2023-04-28T17:19:13.034Z,2.60
2023-04-28T17:21:40.290Z,4.03
2023-04-28T17:24:07.384Z,3.77
2023-04-28T17:26:34.500Z,3.93
2023-04-28T17:29:02.454Z,3.27
2023-04-28T17:31:29.761Z,3.90
2023-04-28T17:33:58.105Z,3.70
2023-04-28T17:36:28.865Z,3.90
2023-04-28T17:38:56.209Z,3.70
2023-04-28T17:41:23.584Z,4.33
2023-04-28T17:43:53.879Z,3.80
2023-04-28T17:46:22.488Z,4.53
2023-04-28T17:48:49.813Z,4.17
2023-04-28T17:51:16.857Z,3.83
2023-04-28T17:53:46.531Z,5.30
2023-04-28T17:56:13.442Z,5.30
2023-04-28T17:58:40.876Z,4.87
2023-04-28T18:01:08.469Z,5.50
2023-04-28T18:03:37.970Z,6.37
2023-04-28T18:06:07.868Z,6.27
2023-04-28T18:08:36.866Z,7.90
2023-04-28T18:11:04.123Z,7.80
2023-04-28T18:13:31.150Z,8.60
2023-04-28T18:15:58.206Z,7.53
2023-04-28T18:18:25.887Z,8.30
2023-04-28T18:20:58.946Z,8.73
2023-04-28T18:23:26.723Z,8.50
2023-04-28T18:25:53.848Z,9.30
2023-04-28T18:28:20.878Z,9.33
2023-04-28T18:30:47.761Z,7.67
2023-04-28T18:33:14.800Z,8.33
2023-04-28T18:35:41.835Z,7.50
2023-04-28T18:38:08.751Z,7.73
2023-04-28T18:40:39.728Z,8.10
2023-04-28T18:43:08.108Z,8.03
2023-04-28T18:45:39.178Z,7.87
2023-04-28T18:48:07.489Z,8.83
2023-04-28T18:50:34.626Z,9.37
2023-04-28T18:53:02.175Z,8.80
2023-04-28T18:55:29.198Z,9.73
2023-04-28T18:57:56.363Z,10.43
2023-04-28T19:00:23.572Z,10.20
2023-04-28T19:02:52.256Z,10.90
2023-04-28T19:05:19.366Z,11.33
2023-04-28T19:07:46.397Z,11.03
2023-04-28T19:10:13.501Z,11.53
2023-04-28T19:12:40.520Z,11.73
2023-04-28T19:15:07.874Z,10.87
2023-04-28T19:17:34.845Z,12.37
2023-04-28T19:20:01.964Z,11.57
2023-04-28T19:22:41.380Z,11.27
2023-04-28T19:25:09.143Z,12.70
2023-04-28T19:27:38.426Z,11.13
2023-04-28T19:30:07.673Z,11.63
2023-04-28T19:32:35.205Z,11.27
2023-04-28T19:35:04.328Z,13.50
2023-04-28T19:37:34.372Z,12.87
2023-04-28T19:40:02.209Z,13.30
2023-04-28T19:42:30.071Z,13.47
2023-04-28T19:44:58.487Z,12.97
2023-04-28T19:47:29.806Z,14.47
2023-04-28T19:49:56.886Z,13.17
2023-04-28T19:52:23.935Z,14.20
2023-04-28T19:54:51.701Z,14.13
2023-04-28T19:57:19.586Z,13.80
2023-04-28T19:59:47.547Z,14.90
2023-04-28T20:02:15.719Z,14.73
2023-04-28T20:04:43.062Z,15.37
2023-04-28T20:07:10.867Z,13.80
2023-04-28T20:09:38.738Z,14.30
2023-04-28T20:12:07.758Z,15.40
2023-04-28T20:14:35.585Z,14.17
2023-04-28T20:17:03.832Z,14.17
2023-04-28T20:19:31.164Z,14.47
2023-04-28T20:21:58.125Z,14.93
2023-04-28T20:24:25.187Z,16.47
2023-04-28T20:26:54.591Z,14.83
2023-04-28T20:29:21.881Z,16.40
2023-04-28T20:31:48.920Z,15.57
2023-04-28T20:34:16.541Z,17.23
2023-04-28T20:36:43.597Z,16.37
2023-04-28T20:39:11.853Z,18.57
2023-04-28T20:41:41.082Z,17.60
2023-04-28T20:44:08.635Z,16.37
2023-04-28T20:46:36.259Z,16.90
2023-04-28T20:49:04.343Z,16.67
2023-04-28T20:51:34.147Z,18.70
2023-04-28T20:54:02.018Z,18.50
2023-04-28T20:56:29.016Z,19.33
2023-04-28T20:58:56.041Z,19.20
2023-04-28T21:01:23.300Z,19.20
2023-04-28T21:03:50.786Z,19.13
2023-04-28T21:06:17.928Z,20.23
2023-04-28T21:08:45.335Z,19.33
2023-04-28T21:11:13.518Z,20.20
2023-04-28T21:13:43.091Z,21.23
2023-04-28T21:16:21.215Z,21.57
2023-04-28T21:18:49.424Z,22.77
2023-04-28T21:21:17.009Z,22.90
2023-04-28T21:23:45.783Z,22.23
2023-04-28T21:26:13.408Z,22.63
2023-04-28T21:28:40.428Z,19.60
2023-04-28T21:31:07.650Z,18.83
2023-04-28T21:33:34.765Z,18.80
2023-04-28T21:36:07.508Z,18.43
2023-04-28T21:38:35.181Z,17.50
2023-04-28T21:41:02.191Z,18.00
2023-04-28T21:43:29.331Z,19.47
2023-04-28T21:45:56.329Z,19.47
2023-04-28T21:48:23.287Z,15.33
2023-04-28T21:50:50.263Z,16.00
2023-04-28T21:53:17.350Z,14.87
2023-04-28T21:55:45.025Z,13.37
2023-04-28T21:58:12.385Z,12.60
2023-04-28T22:00:43.429Z,13.00
2023-04-28T22:03:11.322Z,11.90
2023-04-28T22:05:41.337Z,11.63
2023-04-28T22:08:08.465Z,10.43
2023-04-28T22:10:35.813Z,10.20
2023-04-28T22:13:03.209Z,11.90
2023-04-28T22:15:30.220Z,11.77
2023-04-28T22:17:58.302Z,11.53
2023-04-28T22:20:25.410Z,12.37
2023-04-28T22:22:52.668Z,12.07
2023-04-28T22:25:19.920Z,12.93
2023-04-28T22:27:46.976Z,13.40
2023-04-28T22:30:14.240Z,14.80
2023-04-28T22:32:44.842Z,13.57
2023-04-28T22:35:12.807Z,14.73
2023-04-28T22:37:40.391Z,16.00
2023-04-28T22:40:08.526Z,15.53
2023-04-28T22:42:40.767Z,14.73
2023-04-28T22:45:08.456Z,15.23
2023-04-28T22:47:36.183Z,16.67
2023-04-28T22:50:07.073Z,15.73
2023-04-28T22:52:34.806Z,15.10
2023-04-28T22:55:02.075Z,16.80
2023-04-28T22:57:29.168Z,15.70
2023-04-28T22:59:56.270Z,17.70
2023-04-28T23:02:23.538Z,17.00
2023-04-28T23:04:51.173Z,17.70
2023-04-28T23:07:18.412Z,15.83
2023-04-28T23:09:45.360Z,15.57
2023-04-28T23:12:12.327Z,17.77
2023-04-28T23:14:39.318Z,20.27
2023-04-28T23:17:06.409Z,21.83
2023-04-28T23:19:35.632Z,21.50
2023-04-28T23:22:02.610Z,22.43
2023-04-28T23:24:29.542Z,24.43
2023-04-28T23:26:57.514Z,22.97
2023-04-28T23:29:24.477Z,21.73
2023-04-28T23:31:55.044Z,20.43
2023-04-28T23:34:23.142Z,19.77
2023-04-28T23:36:50.740Z,19.67
2023-04-28T23:39:17.687Z,20.67
2023-04-28T23:41:44.693Z,20.27
2023-04-28T23:44:11.771Z,19.73
2023-04-28T23:46:38.792Z,18.67
2023-04-28T23:49:05.780Z,17.47
2023-04-28T23:51:32.978Z,17.37
2023-04-28T23:54:00.244Z,16.67
2023-04-28T23:56:27.579Z,16.30
2023-04-28T23:58:54.617Z,16.83
